sensor_id;sensor_type;location;lat;lon;timestamp;P1;durP1;ratioP1;P2;durP2;ratioP2
75520;SDS011;64102;48.628;9.002;2023-09-12T00:01:03;12.93;;;3.88;;
75520;SDS011;64102;48.628;9.002;2023-09-12T00:03:31;13.95;;;2.88;;
75520;SDS011;64102;48.628;9.002;2023-09-12T00:05:58;10.60;;;2.53;;
75520;SDS011;64102;48.628;9.002;2023-09-12T00:08:25;10.40;;;3.13;;
75520;SDS011;64102;48.628;9.002;2023-09-12T00:11:00;10.43;;;2.72;;
75520;SDS011;64102;48.628;9.002;2023-09-12T00:13:26;11.43;;;3.30;;
75520;SDS011;64102;48.628;9.002;2023-09-12T00:15:51;12.10;;;3.05;;
75520;SDS011;64102;48.628;9.002;2023-09-12T00:18:16;13.00;;;3.27;;
75520;SDS011;64102;48.628;9.002;2023-09-12T00:20:42;11.63;;;2.83;;
75520;SDS011;64102;48.628;9.002;2023-09-12T00:23:07;12.30;;;3.63;;
75520;SDS011;64102;48.628;9.002;2023-09-12T00:25:32;12.03;;;2.87;;
75520;SDS011;64102;48.628;9.002;2023-09-12T00:27:58;12.17;;;2.80;;
75520;SDS011;64102;48.628;9.002;2023-09-12T00:30:23;13.10;;;3.05;;
75520;SDS011;64102;48.628;9.002;2023-09-12T00:32:48;14.97;;;3.60;;
75520;SDS011;64102;48.628;9.002;2023-09-12T00:35:14;10.73;;;2.60;;
75520;SDS011;64102;48.628;9.002;2023-09-12T00:37:39;10.70;;;2.80;;
75520;SDS011;64102;48.628;9.002;2023-09-12T00:40:05;12.33;;;3.30;;
75520;SDS011;64102;48.628;9.002;2023-09-12T00:42:30;11.93;;;3.25;;
75520;SDS011;64102;48.628;9.002;2023-09-12T00:44:56;9.68;;;3.03;;
75520;SDS011;64102;48.628;9.002;2023-09-12T00:47:21;9.85;;;2.78;;
75520;SDS011;64102;48.628;9.002;2023-09-12T00:49:48;10.98;;;3.00;;
75520;SDS011;64102;48.628;9.002;2023-09-12T00:52:15;10.25;;;2.78;;
75520;SDS011;64102;48.628;9.002;2023-09-12T00:54:42;13.77;;;3.50;;
75520;SDS011;64102;48.628;9.002;2023-09-12T00:57:07;10.90;;;2.67;;
75520;SDS011;64102;48.628;9.002;2023-09-12T00:59:32;12.95;;;3.15;;
75520;SDS011;64102;48.628;9.002;2023-09-12T01:01:58;12.20;;;3.22;;
75520;SDS011;64102;48.628;9.002;2023-09-12T01:04:26;10.68;;;3.30;;
75520;SDS011;64102;48.628;9.002;2023-09-12T01:06:52;12.43;;;3.20;;
75520;SDS011;64102;48.628;9.002;2023-09-12T01:09:17;12.45;;;3.20;;
75520;SDS011;64102;48.628;9.002;2023-09-12T01:11:43;12.88;;;3.30;;
75520;SDS011;64102;48.628;9.002;2023-09-12T01:14:09;14.25;;;3.10;;
75520;SDS011;64102;48.628;9.002;2023-09-12T01:16:34;14.23;;;3.10;;
75520;SDS011;64102;48.628;9.002;2023-09-12T01:19:00;12.77;;;3.97;;
75520;SDS011;64102;48.628;9.002;2023-09-12T01:29:29;11.73;;;2.83;;
75520;SDS011;64102;48.628;9.002;2023-09-12T01:31:56;13.13;;;3.20;;
75520;SDS011;64102;48.628;9.002;2023-09-12T01:34:23;11.32;;;3.15;;
75520;SDS011;64102;48.628;9.002;2023-09-12T01:36:48;11.10;;;3.33;;
75520;SDS011;64102;48.628;9.002;2023-09-12T01:39:14;11.32;;;3.40;;
75520;SDS011;64102;48.628;9.002;2023-09-12T01:41:40;10.90;;;3.22;;
75520;SDS011;64102;48.628;9.002;2023-09-12T01:44:10;13.23;;;3.08;;
75520;SDS011;64102;48.628;9.002;2023-09-12T01:46:37;12.45;;;3.22;;
75520;SDS011;64102;48.628;9.002;2023-09-12T01:49:04;11.52;;;3.80;;
75520;SDS011;64102;48.628;9.002;2023-09-12T01:51:30;16.83;;;3.45;;
75520;SDS011;64102;48.628;9.002;2023-09-12T01:53:56;12.85;;;2.90;;
75520;SDS011;64102;48.628;9.002;2023-09-12T01:56:23;11.18;;;3.17;;
75520;SDS011;64102;48.628;9.002;2023-09-12T01:58:49;11.48;;;3.30;;
75520;SDS011;64102;48.628;9.002;2023-09-12T02:01:14;11.07;;;3.25;;
75520;SDS011;64102;48.628;9.002;2023-09-12T02:03:40;11.40;;;2.73;;
75520;SDS011;64102;48.628;9.002;2023-09-12T02:06:05;11.93;;;3.27;;
75520;SDS011;64102;48.628;9.002;2023-09-12T02:08:31;12.10;;;3.50;;
75520;SDS011;64102;48.628;9.002;2023-09-12T02:10:56;11.03;;;3.33;;
75520;SDS011;64102;48.628;9.002;2023-09-12T02:13:21;10.73;;;3.00;;
75520;SDS011;64102;48.628;9.002;2023-09-12T02:15:47;12.27;;;3.47;;
75520;SDS011;64102;48.628;9.002;2023-09-12T02:18:12;12.33;;;3.37;;
75520;SDS011;64102;48.628;9.002;2023-09-12T02:20:38;10.83;;;3.40;;
75520;SDS011;64102;48.628;9.002;2023-09-12T02:23:09;11.63;;;4.20;;
75520;SDS011;64102;48.628;9.002;2023-09-12T02:25:34;11.97;;;3.30;;
75520;SDS011;64102;48.628;9.002;2023-09-12T02:28:00;12.47;;;3.60;;
75520;SDS011;64102;48.628;9.002;2023-09-12T02:30:25;12.48;;;3.80;;
75520;SDS011;64102;48.628;9.002;2023-09-12T02:32:51;11.45;;;3.33;;
75520;SDS011;64102;48.628;9.002;2023-09-12T02:35:16;10.23;;;2.93;;
75520;SDS011;64102;48.628;9.002;2023-09-12T02:37:41;13.98;;;3.50;;
75520;SDS011;64102;48.628;9.002;2023-09-12T02:40:07;12.15;;;3.35;;
75520;SDS011;64102;48.628;9.002;2023-09-12T02:42:36;11.32;;;3.30;;
75520;SDS011;64102;48.628;9.002;2023-09-12T02:45:01;9.93;;;2.75;;
75520;SDS011;64102;48.628;9.002;2023-09-12T02:47:27;11.85;;;3.33;;
75520;SDS011;64102;48.628;9.002;2023-09-12T02:49:52;12.27;;;3.47;;
75520;SDS011;64102;48.628;9.002;2023-09-12T02:52:17;12.77;;;3.03;;
75520;SDS011;64102;48.628;9.002;2023-09-12T02:54:42;10.40;;;2.97;;
75520;SDS011;64102;48.628;9.002;2023-09-12T02:57:08;13.38;;;3.22;;
75520;SDS011;64102;48.628;9.002;2023-09-12T02:59:34;10.45;;;3.20;;
75520;SDS011;64102;48.628;9.002;2023-09-12T03:01:59;13.02;;;3.78;;
75520;SDS011;64102;48.628;9.002;2023-09-12T03:04:25;14.87;;;3.77;;
75520;SDS011;64102;48.628;9.002;2023-09-12T03:06:53;12.30;;;3.35;;
75520;SDS011;64102;48.628;9.002;2023-09-12T03:09:18;13.30;;;4.30;;
75520;SDS011;64102;48.628;9.002;2023-09-12T03:11:44;13.30;;;3.38;;
75520;SDS011;64102;48.628;9.002;2023-09-12T03:14:10;11.43;;;3.63;;
75520;SDS011;64102;48.628;9.002;2023-09-12T03:16:35;12.60;;;4.15;;
75520;SDS011;64102;48.628;9.002;2023-09-12T03:19:01;14.77;;;4.57;;
75520;SDS011;64102;48.628;9.002;2023-09-12T03:21:28;13.98;;;4.28;;
75520;SDS011;64102;48.628;9.002;2023-09-12T03:23:53;13.93;;;4.00;;
75520;SDS011;64102;48.628;9.002;2023-09-12T03:26:18;12.17;;;4.20;;
75520;SDS011;64102;48.628;9.002;2023-09-12T03:28:44;13.48;;;4.38;;
75520;SDS011;64102;48.628;9.002;2023-09-12T03:31:10;13.93;;;4.27;;
75520;SDS011;64102;48.628;9.002;2023-09-12T03:33:42;14.15;;;3.50;;
75520;SDS011;64102;48.628;9.002;2023-09-12T03:36:12;12.25;;;3.92;;
75520;SDS011;64102;48.628;9.002;2023-09-12T03:38:38;13.65;;;4.25;;
75520;SDS011;64102;48.628;9.002;2023-09-12T03:41:03;13.93;;;4.00;;
75520;SDS011;64102;48.628;9.002;2023-09-12T03:43:29;13.17;;;4.50;;
75520;SDS011;64102;48.628;9.002;2023-09-12T03:45:55;12.95;;;3.63;;
75520;SDS011;64102;48.628;9.002;2023-09-12T03:48:20;12.80;;;4.68;;
75520;SDS011;64102;48.628;9.002;2023-09-12T03:50:46;14.30;;;5.07;;
75520;SDS011;64102;48.628;9.002;2023-09-12T03:53:11;11.00;;;3.40;;
75520;SDS011;64102;48.628;9.002;2023-09-12T03:55:38;13.88;;;4.10;;
75520;SDS011;64102;48.628;9.002;2023-09-12T03:58:03;12.20;;;4.17;;
75520;SDS011;64102;48.628;9.002;2023-09-12T04:00:28;13.15;;;4.40;;
75520;SDS011;64102;48.628;9.002;2023-09-12T04:02:54;12.90;;;4.03;;
75520;SDS011;64102;48.628;9.002;2023-09-12T04:05:19;11.67;;;3.50;;
75520;SDS011;64102;48.628;9.002;2023-09-12T04:07:44;10.57;;;3.75;;
75520;SDS011;64102;48.628;9.002;2023-09-12T04:10:10;13.43;;;4.10;;
75520;SDS011;64102;48.628;9.002;2023-09-12T04:12:35;13.13;;;4.00;;
75520;SDS011;64102;48.628;9.002;2023-09-12T04:15:01;12.00;;;4.00;;
75520;SDS011;64102;48.628;9.002;2023-09-12T04:17:26;12.67;;;4.20;;
75520;SDS011;64102;48.628;9.002;2023-09-12T04:19:51;13.02;;;4.00;;
75520;SDS011;64102;48.628;9.002;2023-09-12T04:22:17;13.67;;;4.23;;
75520;SDS011;64102;48.628;9.002;2023-09-12T04:24:42;15.60;;;4.17;;
75520;SDS011;64102;48.628;9.002;2023-09-12T04:27:07;12.17;;;3.83;;
75520;SDS011;64102;48.628;9.002;2023-09-12T04:29:33;12.15;;;4.13;;
75520;SDS011;64102;48.628;9.002;2023-09-12T04:32:00;12.02;;;3.63;;
75520;SDS011;64102;48.628;9.002;2023-09-12T04:34:26;11.93;;;3.78;;
75520;SDS011;64102;48.628;9.002;2023-09-12T04:36:52;13.87;;;3.83;;
75520;SDS011;64102;48.628;9.002;2023-09-12T04:39:18;14.20;;;4.10;;
75520;SDS011;64102;48.628;9.002;2023-09-12T04:41:43;13.00;;;4.22;;
75520;SDS011;64102;48.628;9.002;2023-09-12T04:44:08;12.67;;;4.33;;
75520;SDS011;64102;48.628;9.002;2023-09-12T04:46:34;14.40;;;4.60;;
75520;SDS011;64102;48.628;9.002;2023-09-12T04:48:59;15.03;;;4.37;;
75520;SDS011;64102;48.628;9.002;2023-09-12T04:51:25;13.18;;;4.30;;
75520;SDS011;64102;48.628;9.002;2023-09-12T04:53:52;14.38;;;4.72;;
75520;SDS011;64102;48.628;9.002;2023-09-12T04:56:17;13.75;;;4.18;;
75520;SDS011;64102;48.628;9.002;2023-09-12T04:58:42;11.88;;;4.07;;
75520;SDS011;64102;48.628;9.002;2023-09-12T05:01:08;13.57;;;3.92;;
75520;SDS011;64102;48.628;9.002;2023-09-12T05:03:34;12.43;;;4.20;;
75520;SDS011;64102;48.628;9.002;2023-09-12T05:05:59;12.32;;;4.47;;
75520;SDS011;64102;48.628;9.002;2023-09-12T05:08:25;11.60;;;3.90;;
75520;SDS011;64102;48.628;9.002;2023-09-12T05:10:50;12.73;;;4.25;;
75520;SDS011;64102;48.628;9.002;2023-09-12T05:13:16;13.40;;;4.38;;
75520;SDS011;64102;48.628;9.002;2023-09-12T05:15:43;13.18;;;4.82;;
75520;SDS011;64102;48.628;9.002;2023-09-12T05:18:08;11.05;;;4.30;;
75520;SDS011;64102;48.628;9.002;2023-09-12T05:20:34;13.57;;;4.97;;
75520;SDS011;64102;48.628;9.002;2023-09-12T05:22:59;15.02;;;4.18;;
75520;SDS011;64102;48.628;9.002;2023-09-12T05:25:25;13.57;;;4.47;;
75520;SDS011;64102;48.628;9.002;2023-09-12T05:27:51;11.73;;;4.05;;
75520;SDS011;64102;48.628;9.002;2023-09-12T05:30:17;10.15;;;3.70;;
75520;SDS011;64102;48.628;9.002;2023-09-12T05:32:42;12.90;;;3.97;;
75520;SDS011;64102;48.628;9.002;2023-09-12T05:35:08;12.63;;;4.03;;
75520;SDS011;64102;48.628;9.002;2023-09-12T05:37:33;12.23;;;4.25;;
75520;SDS011;64102;48.628;9.002;2023-09-12T05:39:59;13.10;;;3.70;;
75520;SDS011;64102;48.628;9.002;2023-09-12T05:42:24;11.50;;;3.70;;
75520;SDS011;64102;48.628;9.002;2023-09-12T05:44:50;13.27;;;3.80;;
75520;SDS011;64102;48.628;9.002;2023-09-12T05:47:18;13.52;;;4.03;;
75520;SDS011;64102;48.628;9.002;2023-09-12T05:49:44;11.60;;;3.67;;
75520;SDS011;64102;48.628;9.002;2023-09-12T05:52:09;12.23;;;3.78;;
75520;SDS011;64102;48.628;9.002;2023-09-12T05:54:36;13.30;;;3.90;;
75520;SDS011;64102;48.628;9.002;2023-09-12T05:57:01;12.23;;;4.00;;
75520;SDS011;64102;48.628;9.002;2023-09-12T05:59:27;11.88;;;3.97;;
75520;SDS011;64102;48.628;9.002;2023-09-12T06:01:52;11.25;;;3.50;;
75520;SDS011;64102;48.628;9.002;2023-09-12T06:04:18;10.88;;;4.03;;
75520;SDS011;64102;48.628;9.002;2023-09-12T06:06:43;10.43;;;3.60;;
75520;SDS011;64102;48.628;9.002;2023-09-12T06:09:08;12.00;;;3.70;;
75520;SDS011;64102;48.628;9.002;2023-09-12T06:11:34;10.35;;;3.50;;
75520;SDS011;64102;48.628;9.002;2023-09-12T06:13:59;12.38;;;3.67;;
75520;SDS011;64102;48.628;9.002;2023-09-12T06:16:25;11.70;;;3.90;;
75520;SDS011;64102;48.628;9.002;2023-09-12T06:18:50;10.15;;;3.28;;
75520;SDS011;64102;48.628;9.002;2023-09-12T06:21:16;10.60;;;3.33;;
75520;SDS011;64102;48.628;9.002;2023-09-12T06:23:42;10.60;;;3.90;;
75520;SDS011;64102;48.628;9.002;2023-09-12T06:26:07;12.95;;;4.22;;
75520;SDS011;64102;48.628;9.002;2023-09-12T06:28:33;9.87;;;4.23;;
75520;SDS011;64102;48.628;9.002;2023-09-12T06:30:58;11.97;;;3.30;;
75520;SDS011;64102;48.628;9.002;2023-09-12T06:33:26;10.10;;;3.17;;
75520;SDS011;64102;48.628;9.002;2023-09-12T06:35:53;11.13;;;3.72;;
75520;SDS011;64102;48.628;9.002;2023-09-12T06:38:19;10.05;;;3.70;;
75520;SDS011;64102;48.628;9.002;2023-09-12T06:40:45;11.20;;;3.88;;
75520;SDS011;64102;48.628;9.002;2023-09-12T06:43:12;11.45;;;4.40;;
75520;SDS011;64102;48.628;9.002;2023-09-12T06:45:37;13.65;;;3.90;;
75520;SDS011;64102;48.628;9.002;2023-09-12T06:48:03;13.98;;;4.63;;
75520;SDS011;64102;48.628;9.002;2023-09-12T06:50:29;10.88;;;3.50;;
75520;SDS011;64102;48.628;9.002;2023-09-12T06:52:54;9.90;;;3.70;;
75520;SDS011;64102;48.628;9.002;2023-09-12T06:55:20;14.02;;;4.00;;
75520;SDS011;64102;48.628;9.002;2023-09-12T06:57:45;11.95;;;4.07;;
75520;SDS011;64102;48.628;9.002;2023-09-12T07:00:11;10.57;;;3.83;;
75520;SDS011;64102;48.628;9.002;2023-09-12T07:02:37;11.55;;;3.92;;
75520;SDS011;64102;48.628;9.002;2023-09-12T07:05:03;10.77;;;3.80;;
75520;SDS011;64102;48.628;9.002;2023-09-12T07:07:29;11.52;;;4.15;;
75520;SDS011;64102;48.628;9.002;2023-09-12T07:09:55;9.25;;;3.80;;
75520;SDS011;64102;48.628;9.002;2023-09-12T07:12:21;12.30;;;4.07;;
75520;SDS011;64102;48.628;9.002;2023-09-12T07:14:46;10.45;;;4.05;;
75520;SDS011;64102;48.628;9.002;2023-09-12T07:17:12;11.13;;;4.10;;
75520;SDS011;64102;48.628;9.002;2023-09-12T07:19:37;10.33;;;4.60;;
75520;SDS011;64102;48.628;9.002;2023-09-12T07:22:02;10.87;;;4.13;;
75520;SDS011;64102;48.628;9.002;2023-09-12T07:24:28;12.90;;;4.53;;
75520;SDS011;64102;48.628;9.002;2023-09-12T07:26:53;11.27;;;4.88;;
75520;SDS011;64102;48.628;9.002;2023-09-12T07:29:19;12.40;;;4.63;;
75520;SDS011;64102;48.628;9.002;2023-09-12T07:31:44;10.40;;;4.70;;
75520;SDS011;64102;48.628;9.002;2023-09-12T07:34:10;9.73;;;4.18;;
75520;SDS011;64102;48.628;9.002;2023-09-12T07:36:37;10.55;;;4.13;;
75520;SDS011;64102;48.628;9.002;2023-09-12T07:39:02;10.57;;;4.10;;
75520;SDS011;64102;48.628;9.002;2023-09-12T07:41:29;11.27;;;4.68;;
75520;SDS011;64102;48.628;9.002;2023-09-12T07:43:55;10.23;;;4.18;;
75520;SDS011;64102;48.628;9.002;2023-09-12T07:46:20;13.10;;;4.65;;
75520;SDS011;64102;48.628;9.002;2023-09-12T07:48:46;10.98;;;4.55;;
75520;SDS011;64102;48.628;9.002;2023-09-12T07:51:12;10.85;;;4.40;;
75520;SDS011;64102;48.628;9.002;2023-09-12T07:53:39;12.13;;;4.63;;
75520;SDS011;64102;48.628;9.002;2023-09-12T07:56:05;11.43;;;4.50;;
75520;SDS011;64102;48.628;9.002;2023-09-12T07:58:30;10.65;;;4.60;;
75520;SDS011;64102;48.628;9.002;2023-09-12T08:00:55;10.43;;;3.93;;
75520;SDS011;64102;48.628;9.002;2023-09-12T08:03:21;9.47;;;4.07;;
75520;SDS011;64102;48.628;9.002;2023-09-12T08:05:55;11.13;;;4.30;;
75520;SDS011;64102;48.628;9.002;2023-09-12T08:08:22;11.93;;;4.35;;
75520;SDS011;64102;48.628;9.002;2023-09-12T08:10:48;11.23;;;3.80;;
75520;SDS011;64102;48.628;9.002;2023-09-12T08:13:13;11.50;;;4.35;;
75520;SDS011;64102;48.628;9.002;2023-09-12T08:15:39;12.47;;;4.40;;
75520;SDS011;64102;48.628;9.002;2023-09-12T08:18:04;11.88;;;4.43;;
75520;SDS011;64102;48.628;9.002;2023-09-12T08:20:30;10.32;;;4.57;;
75520;SDS011;64102;48.628;9.002;2023-09-12T08:22:55;9.95;;;4.65;;
75520;SDS011;64102;48.628;9.002;2023-09-12T08:25:20;10.35;;;5.18;;
75520;SDS011;64102;48.628;9.002;2023-09-12T08:27:46;11.30;;;4.78;;
75520;SDS011;64102;48.628;9.002;2023-09-12T08:30:12;10.63;;;4.73;;
75520;SDS011;64102;48.628;9.002;2023-09-12T08:32:38;12.65;;;5.43;;
75520;SDS011;64102;48.628;9.002;2023-09-12T08:35:06;12.25;;;5.18;;
75520;SDS011;64102;48.628;9.002;2023-09-12T08:37:31;11.98;;;6.68;;
75520;SDS011;64102;48.628;9.002;2023-09-12T08:39:57;11.40;;;5.57;;
75520;SDS011;64102;48.628;9.002;2023-09-12T08:42:24;10.40;;;6.35;;
75520;SDS011;64102;48.628;9.002;2023-09-12T08:44:52;10.98;;;8.13;;
75520;SDS011;64102;48.628;9.002;2023-09-12T08:47:18;11.23;;;8.75;;
75520;SDS011;64102;48.628;9.002;2023-09-12T08:49:47;11.00;;;5.47;;
75520;SDS011;64102;48.628;9.002;2023-09-12T08:52:13;10.77;;;6.60;;
75520;SDS011;64102;48.628;9.002;2023-09-12T08:54:38;11.10;;;6.53;;
75520;SDS011;64102;48.628;9.002;2023-09-12T08:57:07;9.77;;;5.45;;
75520;SDS011;64102;48.628;9.002;2023-09-12T08:59:35;9.90;;;6.55;;
75520;SDS011;64102;48.628;9.002;2023-09-12T09:02:02;11.75;;;6.47;;
75520;SDS011;64102;48.628;9.002;2023-09-12T09:04:30;11.75;;;7.35;;
75520;SDS011;64102;48.628;9.002;2023-09-12T09:06:58;11.77;;;8.18;;
75520;SDS011;64102;48.628;9.002;2023-09-12T09:09:24;11.82;;;9.65;;
75520;SDS011;64102;48.628;9.002;2023-09-12T09:11:53;11.00;;;9.52;;
75520;SDS011;64102;48.628;9.002;2023-09-12T09:14:19;11.95;;;9.98;;
75520;SDS011;64102;48.628;9.002;2023-09-12T09:16:44;11.90;;;8.67;;
75520;SDS011;64102;48.628;9.002;2023-09-12T09:19:10;10.57;;;8.13;;
75520;SDS011;64102;48.628;9.002;2023-09-12T09:21:35;10.27;;;8.15;;
75520;SDS011;64102;48.628;9.002;2023-09-12T09:24:12;10.52;;;8.38;;
75520;SDS011;64102;48.628;9.002;2023-09-12T09:29:14;14.43;;;9.98;;
75520;SDS011;64102;48.628;9.002;2023-09-12T09:31:41;11.77;;;10.25;;
75520;SDS011;64102;48.628;9.002;2023-09-12T09:34:26;11.70;;;10.50;;
75520;SDS011;64102;48.628;9.002;2023-09-12T09:37:15;11.68;;;8.50;;
75520;SDS011;64102;48.628;9.002;2023-09-12T09:39:41;11.02;;;9.93;;
75520;SDS011;64102;48.628;9.002;2023-09-12T09:42:06;13.07;;;11.68;;
75520;SDS011;64102;48.628;9.002;2023-09-12T09:47:01;13.33;;;12.13;;
75520;SDS011;64102;48.628;9.002;2023-09-12T09:49:31;16.70;;;15.32;;
75520;SDS011;64102;48.628;9.002;2023-09-12T09:51:56;16.33;;;14.95;;
75520;SDS011;64102;48.628;9.002;2023-09-12T09:54:24;14.57;;;13.27;;
75520;SDS011;64102;48.628;9.002;2023-09-12T09:56:54;16.20;;;14.75;;
75520;SDS011;64102;48.628;9.002;2023-09-12T09:59:21;14.55;;;13.25;;
75520;SDS011;64102;48.628;9.002;2023-09-12T10:01:52;17.85;;;16.40;;
75520;SDS011;64102;48.628;9.002;2023-09-12T10:04:21;19.23;;;17.83;;
75520;SDS011;64102;48.628;9.002;2023-09-12T10:06:47;22.13;;;20.33;;
75520;SDS011;64102;48.628;9.002;2023-09-12T10:09:14;22.17;;;20.48;;
75520;SDS011;64102;48.628;9.002;2023-09-12T10:11:42;20.80;;;19.10;;
75520;SDS011;64102;48.628;9.002;2023-09-12T10:14:08;16.15;;;14.73;;
75520;SDS011;64102;48.628;9.002;2023-09-12T10:16:39;20.92;;;19.05;;
75520;SDS011;64102;48.628;9.002;2023-09-12T10:19:12;25.10;;;23.27;;
75520;SDS011;64102;48.628;9.002;2023-09-12T10:21:46;21.20;;;19.50;;
75520;SDS011;64102;48.628;9.002;2023-09-12T10:24:15;20.23;;;18.77;;
75520;SDS011;64102;48.628;9.002;2023-09-12T10:26:41;25.27;;;23.38;;
75520;SDS011;64102;48.628;9.002;2023-09-12T10:29:10;33.55;;;31.52;;
75520;SDS011;64102;48.628;9.002;2023-09-12T10:31:40;29.85;;;27.98;;
75520;SDS011;64102;48.628;9.002;2023-09-12T10:34:06;15.68;;;14.38;;
75520;SDS011;64102;48.628;9.002;2023-09-12T10:36:36;14.60;;;13.30;;
75520;SDS011;64102;48.628;9.002;2023-09-12T10:39:03;21.00;;;19.50;;
75520;SDS011;64102;48.628;9.002;2023-09-12T10:41:30;21.10;;;19.50;;
75520;SDS011;64102;48.628;9.002;2023-09-12T10:43:55;18.63;;;17.23;;
75520;SDS011;64102;48.628;9.002;2023-09-12T10:46:23;12.65;;;11.35;;
75520;SDS011;64102;48.628;9.002;2023-09-12T10:48:48;13.57;;;12.25;;
75520;SDS011;64102;48.628;9.002;2023-09-12T10:51:15;14.95;;;13.50;;
75520;SDS011;64102;48.628;9.002;2023-09-12T10:53:49;21.65;;;20.13;;
75520;SDS011;64102;48.628;9.002;2023-09-12T10:56:16;18.23;;;16.83;;
75520;SDS011;64102;48.628;9.002;2023-09-12T10:59:29;19.42;;;17.80;;
75520;SDS011;64102;48.628;9.002;2023-09-12T11:01:30;14.60;;;13.30;;
75520;SDS011;64102;48.628;9.002;2023-09-12T11:03:56;13.40;;;12.07;;
75520;SDS011;64102;48.628;9.002;2023-09-12T11:06:30;21.15;;;19.55;;
75520;SDS011;64102;48.628;9.002;2023-09-12T11:11:42;24.42;;;22.80;;
75520;SDS011;64102;48.628;9.002;2023-09-12T11:14:08;32.25;;;30.17;;
75520;SDS011;64102;48.628;9.002;2023-09-12T11:16:34;22.73;;;21.13;;
75520;SDS011;64102;48.628;9.002;2023-09-12T11:21:54;30.80;;;29.02;;
75520;SDS011;64102;48.628;9.002;2023-09-12T11:24:21;26.63;;;24.92;;
75520;SDS011;64102;48.628;9.002;2023-09-12T11:26:59;24.45;;;22.85;;
75520;SDS011;64102;48.628;9.002;2023-09-12T11:29:44;34.55;;;32.42;;
75520;SDS011;64102;48.628;9.002;2023-09-12T11:32:10;31.25;;;29.45;;
75520;SDS011;64102;48.628;9.002;2023-09-12T11:34:50;30.27;;;28.48;;
75520;SDS011;64102;48.628;9.002;2023-09-12T11:37:24;30.65;;;28.83;;
75520;SDS011;64102;48.628;9.002;2023-09-12T11:39:50;31.35;;;29.55;;
75520;SDS011;64102;48.628;9.002;2023-09-12T11:42:17;28.83;;;27.15;;
75520;SDS011;64102;48.628;9.002;2023-09-12T11:44:43;25.63;;;23.92;;
75520;SDS011;64102;48.628;9.002;2023-09-12T11:47:09;27.60;;;25.90;;
75520;SDS011;64102;48.628;9.002;2023-09-12T11:49:39;34.75;;;32.95;;
75520;SDS011;64102;48.628;9.002;2023-09-12T11:52:12;21.17;;;19.75;;
75520;SDS011;64102;48.628;9.002;2023-09-12T11:54:40;29.38;;;27.67;;
75520;SDS011;64102;48.628;9.002;2023-09-12T11:57:09;26.95;;;25.25;;
75520;SDS011;64102;48.628;9.002;2023-09-12T11:59:38;35.55;;;33.65;;
75520;SDS011;64102;48.628;9.002;2023-09-12T12:02:08;39.22;;;37.05;;
75520;SDS011;64102;48.628;9.002;2023-09-12T12:04:35;33.63;;;31.63;;
75520;SDS011;64102;48.628;9.002;2023-09-12T12:07:01;44.55;;;42.38;;
75520;SDS011;64102;48.628;9.002;2023-09-12T12:09:29;47.92;;;45.42;;
75520;SDS011;64102;48.628;9.002;2023-09-12T12:11:54;39.47;;;37.42;;
75520;SDS011;64102;48.628;9.002;2023-09-12T12:14:20;42.22;;;40.10;;
75520;SDS011;64102;48.628;9.002;2023-09-12T12:16:46;41.63;;;39.38;;
75520;SDS011;64102;48.628;9.002;2023-09-12T12:19:12;33.55;;;31.75;;
75520;SDS011;64102;48.628;9.002;2023-09-12T12:21:39;34.38;;;32.55;;
75520;SDS011;64102;48.628;9.002;2023-09-12T12:24:09;36.78;;;34.78;;
75520;SDS011;64102;48.628;9.002;2023-09-12T12:26:37;27.08;;;25.15;;
75520;SDS011;64102;48.628;9.002;2023-09-12T12:29:03;28.02;;;26.40;;
75520;SDS011;64102;48.628;9.002;2023-09-12T12:31:29;35.10;;;33.05;;
75520;SDS011;64102;48.628;9.002;2023-09-12T12:33:55;29.65;;;27.92;;
75520;SDS011;64102;48.628;9.002;2023-09-12T12:36:21;33.45;;;31.65;;
75520;SDS011;64102;48.628;9.002;2023-09-12T12:38:48;26.85;;;24.92;;
75520;SDS011;64102;48.628;9.002;2023-09-12T12:41:22;28.90;;;27.15;;
75520;SDS011;64102;48.628;9.002;2023-09-12T12:43:51;33.67;;;31.73;;
75520;SDS011;64102;48.628;9.002;2023-09-12T12:46:17;26.02;;;24.42;;
75520;SDS011;64102;48.628;9.002;2023-09-12T12:48:44;22.17;;;20.75;;
75520;SDS011;64102;48.628;9.002;2023-09-12T12:51:20;23.83;;;22.15;;
75520;SDS011;64102;48.628;9.002;2023-09-12T12:54:04;23.75;;;22.20;;
75520;SDS011;64102;48.628;9.002;2023-09-12T12:56:31;16.15;;;14.88;;
75520;SDS011;64102;48.628;9.002;2023-09-12T12:58:57;26.50;;;24.90;;
75520;SDS011;64102;48.628;9.002;2023-09-12T13:01:27;25.13;;;23.40;;
75520;SDS011;64102;48.628;9.002;2023-09-12T13:03:52;26.23;;;24.43;;
75520;SDS011;64102;48.628;9.002;2023-09-12T13:06:19;21.80;;;20.27;;
75520;SDS011;64102;48.628;9.002;2023-09-12T13:08:45;24.95;;;23.25;;
75520;SDS011;64102;48.628;9.002;2023-09-12T13:11:12;26.58;;;24.90;;
75520;SDS011;64102;48.628;9.002;2023-09-12T13:13:39;22.58;;;21.10;;
75520;SDS011;64102;48.628;9.002;2023-09-12T13:16:05;20.42;;;18.88;;
75520;SDS011;64102;48.628;9.002;2023-09-12T13:18:34;18.83;;;17.45;;
75520;SDS011;64102;48.628;9.002;2023-09-12T13:21:03;15.98;;;14.75;;
75520;SDS011;64102;48.628;9.002;2023-09-12T13:23:29;16.02;;;14.82;;
75520;SDS011;64102;48.628;9.002;2023-09-12T13:25:55;20.23;;;18.73;;
75520;SDS011;64102;48.628;9.002;2023-09-12T13:28:21;16.05;;;14.63;;
75520;SDS011;64102;48.628;9.002;2023-09-12T13:30:53;12.77;;;10.30;;
75520;SDS011;64102;48.628;9.002;2023-09-12T13:33:19;11.05;;;9.88;;
75520;SDS011;64102;48.628;9.002;2023-09-12T13:35:44;12.15;;;9.80;;
75520;SDS011;64102;48.628;9.002;2023-09-12T13:38:10;13.73;;;12.18;;
75520;SDS011;64102;48.628;9.002;2023-09-12T13:40:36;14.35;;;12.73;;
75520;SDS011;64102;48.628;9.002;2023-09-12T13:43:03;13.57;;;12.18;;
75520;SDS011;64102;48.628;9.002;2023-09-12T13:45:29;13.40;;;12.00;;
75520;SDS011;64102;48.628;9.002;2023-09-12T13:47:54;18.47;;;16.67;;
75520;SDS011;64102;48.628;9.002;2023-09-12T13:50:19;17.93;;;16.33;;
75520;SDS011;64102;48.628;9.002;2023-09-12T13:52:45;13.73;;;12.02;;
75520;SDS011;64102;48.628;9.002;2023-09-12T13:55:10;13.83;;;10.87;;
75520;SDS011;64102;48.628;9.002;2023-09-12T13:57:39;15.20;;;13.70;;
75520;SDS011;64102;48.628;9.002;2023-09-12T14:00:04;15.35;;;13.93;;
75520;SDS011;64102;48.628;9.002;2023-09-12T14:02:30;17.58;;;16.13;;
75520;SDS011;64102;48.628;9.002;2023-09-12T14:04:57;15.43;;;14.00;;
75520;SDS011;64102;48.628;9.002;2023-09-12T14:07:22;13.98;;;10.77;;
75520;SDS011;64102;48.628;9.002;2023-09-12T14:09:48;10.75;;;5.47;;
75520;SDS011;64102;48.628;9.002;2023-09-12T14:12:14;11.48;;;5.50;;
75520;SDS011;64102;48.628;9.002;2023-09-12T14:14:41;11.02;;;6.07;;
75520;SDS011;64102;48.628;9.002;2023-09-12T14:17:06;12.40;;;6.97;;
75520;SDS011;64102;48.628;9.002;2023-09-12T14:19:32;12.70;;;5.80;;
75520;SDS011;64102;48.628;9.002;2023-09-12T14:21:59;12.32;;;5.43;;
75520;SDS011;64102;48.628;9.002;2023-09-12T14:24:24;11.13;;;5.82;;
75520;SDS011;64102;48.628;9.002;2023-09-12T14:26:49;10.73;;;4.88;;
75520;SDS011;64102;48.628;9.002;2023-09-12T14:29:15;11.77;;;5.82;;
75520;SDS011;64102;48.628;9.002;2023-09-12T14:31:41;11.38;;;5.00;;
75520;SDS011;64102;48.628;9.002;2023-09-12T14:34:14;11.88;;;4.80;;
75520;SDS011;64102;48.628;9.002;2023-09-12T14:36:40;10.55;;;4.85;;
75520;SDS011;64102;48.628;9.002;2023-09-12T14:39:05;24.52;;;10.00;;
75520;SDS011;64102;48.628;9.002;2023-09-12T14:41:31;25.55;;;9.27;;
75520;SDS011;64102;48.628;9.002;2023-09-12T14:43:57;27.60;;;8.57;;
75520;SDS011;64102;48.628;9.002;2023-09-12T14:46:22;13.45;;;4.65;;